createdAt,value
2022-08-29T00:03:46.456Z,77.2
2022-08-29T00:08:46.131Z,77.2
2022-08-29T00:13:46.252Z,77.3
2022-08-29T00:18:46.213Z,77.3
2022-08-29T00:23:46.202Z,77.3
2022-08-29T00:28:46.280Z,77.4
2022-08-29T00:33:46.248Z,77.4
2022-08-29T00:38:46.236Z,77.4
2022-08-29T00:43:46.496Z,77.5
2022-08-29T00:48:46.141Z,77.5
2022-08-29T00:53:46.227Z,77.6
2022-08-29T00:58:46.267Z,77.6
2022-08-29T01:03:46.227Z,77.6
2022-08-29T01:08:46.138Z,77.7
2022-08-29T01:13:46.103Z,77.7
2022-08-29T01:18:46.174Z,77.7
2022-08-29T01:23:46.180Z,77.8
2022-08-29T01:28:46.361Z,77.8
2022-08-29T01:33:46.106Z,77.8
2022-08-29T01:38:46.135Z,77.9
2022-08-29T01:43:46.314Z,77.9
2022-08-29T01:48:46.108Z,77.9
2022-08-29T01:53:46.088Z,77.9
2022-08-29T01:58:46.254Z,77.9
2022-08-29T02:03:46.096Z,77.9
2022-08-29T02:08:46.088Z,78.0
2022-08-29T02:13:45.940Z,78.0
2022-08-29T02:18:46.090Z,78.0
2022-08-29T02:23:46.187Z,78.1
2022-08-29T02:28:46.097Z,78.1
2022-08-29T02:33:46.248Z,78.1
2022-08-29T02:38:46.069Z,78.2
2022-08-29T02:43:46.036Z,78.2
2022-08-29T02:48:49.178Z,78.3
2022-08-29T02:53:46.018Z,78.3
2022-08-29T02:58:45.995Z,78.3
2022-08-29T03:03:46.277Z,78.4
2022-08-29T03:08:45.939Z,78.4
2022-08-29T03:13:46.020Z,78.6
2022-08-29T03:18:46.134Z,78.5
2022-08-29T03:23:45.913Z,78.7
2022-08-29T03:28:45.935Z,78.6
2022-08-29T03:33:46.148Z,78.7
2022-08-29T03:38:45.924Z,78.6
2022-08-29T03:43:45.856Z,78.7
2022-08-29T03:48:46.056Z,78.7
2022-08-29T03:53:45.946Z,78.8
2022-08-29T03:58:50.387Z,78.7
2022-08-29T04:03:46.193Z,78.7
2022-08-29T04:08:46.016Z,78.8
2022-08-29T04:13:45.969Z,78.8
2022-08-29T04:18:46.007Z,78.8
2022-08-29T04:23:45.928Z,78.8
2022-08-29T04:28:45.837Z,78.9
2022-08-29T04:33:46.024Z,78.9
2022-08-29T04:38:45.729Z,78.9
2022-08-29T04:43:45.828Z,78.9
2022-08-29T04:48:45.961Z,79.1
2022-08-29T04:53:45.846Z,79.0
2022-08-29T04:58:45.807Z,79.1
2022-08-29T05:03:45.933Z,78.9
2022-08-29T05:08:45.841Z,78.9
2022-08-29T05:13:45.820Z,78.9
2022-08-29T05:18:45.650Z,78.9
2022-08-29T05:23:45.762Z,78.9
2022-08-29T05:28:45.735Z,78.8
2022-08-29T05:33:46.176Z,78.8
2022-08-29T05:38:45.634Z,78.8
2022-08-29T05:43:45.829Z,78.8
2022-08-29T05:48:45.807Z,78.9
2022-08-29T05:53:45.646Z,78.8
2022-08-29T05:58:45.614Z,78.7
2022-08-29T06:03:46.192Z,78.7
2022-08-29T06:08:45.715Z,78.7
2022-08-29T06:13:45.732Z,78.4
2022-08-29T06:18:45.571Z,78.4
2022-08-29T06:23:45.713Z,78.4
2022-08-29T06:28:45.919Z,78.3
2022-08-29T06:33:46.157Z,78.4
2022-08-29T06:38:45.687Z,78.3
2022-08-29T06:43:45.549Z,78.1
2022-08-29T06:48:45.536Z,77.9
2022-08-29T06:53:45.581Z,77.7
2022-08-29T06:58:45.592Z,77.6
2022-08-29T07:03:45.701Z,77.8
2022-08-29T07:08:54.704Z,77.7
2022-08-29T07:13:45.628Z,77.7
2022-08-29T07:18:45.758Z,77.4
2022-08-29T07:23:45.533Z,77.4
2022-08-29T07:28:46.203Z,77.5
2022-08-29T07:33:45.635Z,77.3
2022-08-29T07:38:45.485Z,77.1
2022-08-29T07:43:45.485Z,77.0
2022-08-29T08:03:46.270Z,75.6
2022-08-29T08:08:45.607Z,75.9
2022-08-29T08:13:45.406Z,75.9
2022-08-29T08:18:45.536Z,75.5
2022-08-29T08:23:45.494Z,75.4
2022-08-29T08:28:45.611Z,75.2
2022-08-29T08:33:45.412Z,75.0
2022-08-29T08:38:45.501Z,74.5
2022-08-29T08:43:45.658Z,74.1
2022-08-29T08:48:45.489Z,73.7
2022-08-29T08:53:45.409Z,72.8
2022-08-29T08:58:45.573Z,72.5
2022-08-29T09:03:45.440Z,71.8
2022-08-29T09:08:45.453Z,72.4
2022-08-29T09:13:45.608Z,72.5
2022-08-29T09:18:52.776Z,71.8
2022-08-29T09:23:45.387Z,71.3
2022-08-29T09:28:45.509Z,71.6
2022-08-29T09:33:45.450Z,70.5
2022-08-29T09:38:45.410Z,70.8
2022-08-29T09:43:45.548Z,70.5
2022-08-29T09:48:45.286Z,70.1
2022-08-29T09:53:45.471Z,69.7
2022-08-29T09:58:45.513Z,69.3
2022-08-29T10:03:45.295Z,69.0
2022-08-29T10:08:45.266Z,69.3
2022-08-29T10:13:45.427Z,68.8
2022-08-29T10:18:45.269Z,68.3
2022-08-29T10:23:45.267Z,67.6
2022-08-29T10:28:45.701Z,67.6
2022-08-29T10:33:46.444Z,67.4
2022-08-29T10:38:45.300Z,67.5
2022-08-29T10:43:45.259Z,67.2
2022-08-29T10:48:45.298Z,66.5
2022-08-29T10:53:45.285Z,66.1
2022-08-29T10:58:45.413Z,65.5
2022-08-29T11:03:45.363Z,65.5
2022-08-29T11:08:45.242Z,65.3
2022-08-29T11:13:45.524Z,64.5
2022-08-29T11:18:45.226Z,63.3
2022-08-29T11:23:45.165Z,63.4
2022-08-29T11:33:45.551Z,62.5
2022-08-29T11:38:45.220Z,62.8
2022-08-29T11:43:45.202Z,62.7
2022-08-29T11:48:45.230Z,61.6
2022-08-29T11:53:45.204Z,61.4
2022-08-29T11:58:46.133Z,61.1
2022-08-29T12:03:45.255Z,60.8
2022-08-29T12:08:45.209Z,60.6
2022-08-29T12:13:45.415Z,60.2
2022-08-29T12:18:45.217Z,60.1
2022-08-29T12:23:45.172Z,59.9
2022-08-29T12:28:45.996Z,59.8
2022-08-29T12:33:45.108Z,59.3
2022-08-29T12:38:45.234Z,59.2
2022-08-29T12:43:45.506Z,58.9
2022-08-29T12:48:49.638Z,58.9
2022-08-29T12:53:45.665Z,58.1
2022-08-29T12:58:45.262Z,57.7
2022-08-29T13:03:45.121Z,57.5
2022-08-29T13:08:45.425Z,56.6
2022-08-29T13:13:45.414Z,56.9
2022-08-29T13:19:00.693Z,56.3
2022-08-29T13:23:45.163Z,56.1
2022-08-29T13:28:45.153Z,56.1
2022-08-29T13:33:45.029Z,55.6
2022-08-29T13:38:45.020Z,55.6
2022-08-29T13:43:45.126Z,55.2
2022-08-29T13:48:45.213Z,55.4
2022-08-29T13:53:45.618Z,54.6
2022-08-29T13:58:44.972Z,54.7
2022-08-29T14:03:45.027Z,54.4
2022-08-29T14:08:45.304Z,53.8
2022-08-29T16:13:20.725Z,75.6
2022-08-29T16:18:20.898Z,51.7
2022-08-29T16:23:20.818Z,51.7
2022-08-29T16:28:22.523Z,51.9
2022-08-29T16:33:20.663Z,51.9
2022-08-29T16:38:20.746Z,52.1
2022-08-29T16:43:20.691Z,52.3
2022-08-29T16:48:22.233Z,52.5
2022-08-29T16:53:20.871Z,52.8
2022-08-29T16:58:20.705Z,52.9
2022-08-29T17:03:20.948Z,53.1
2022-08-29T17:08:20.728Z,53.3
2022-08-29T17:13:20.729Z,53.4
2022-08-29T17:18:20.956Z,53.5
2022-08-29T17:23:20.696Z,53.8
2022-08-29T17:28:20.747Z,54.0
2022-08-29T17:33:20.877Z,54.2
2022-08-29T17:38:20.886Z,54.5
2022-08-29T17:43:22.223Z,54.8
2022-08-29T17:48:20.752Z,55.1
2022-08-29T17:53:20.659Z,55.4
2022-08-29T17:58:20.645Z,55.6
2022-08-29T18:03:20.819Z,55.9
2022-08-29T18:08:20.642Z,56.1
2022-08-29T18:13:21.933Z,56.4
2022-08-29T18:18:20.706Z,56.6
2022-08-29T18:23:20.620Z,56.9
2022-08-29T18:28:20.662Z,57.1
2022-08-29T18:33:20.775Z,57.3
2022-08-29T18:38:20.465Z,57.5
2022-08-29T18:43:20.667Z,57.6
2022-08-29T18:48:20.894Z,57.8
2022-08-29T18:53:20.604Z,58.0
2022-08-29T18:58:20.479Z,58.2
2022-08-29T19:03:20.448Z,58.4
2022-08-29T19:08:20.439Z,58.6
2022-08-29T19:13:20.464Z,58.8
2022-08-29T19:18:20.638Z,59.1
2022-08-29T19:23:20.569Z,59.3
2022-08-29T19:28:20.578Z,59.3
2022-08-29T19:33:20.752Z,59.6
2022-08-29T19:38:20.505Z,59.9
2022-08-29T19:43:20.735Z,60.2
2022-08-29T19:48:20.754Z,60.3
2022-08-29T19:53:26.456Z,60.5
2022-08-29T19:58:20.481Z,60.6
2022-08-29T20:03:20.809Z,60.8
2022-08-29T20:08:21.225Z,60.8
2022-08-29T20:13:20.408Z,61.0
2022-08-29T20:18:20.777Z,61.2
2022-08-29T20:23:20.436Z,61.3
2022-08-29T20:28:20.282Z,61.6
2022-08-29T20:33:20.274Z,61.8
2022-08-29T20:38:20.273Z,62.0
2022-08-29T20:43:20.290Z,62.1
2022-08-29T20:48:20.517Z,62.2
2022-08-29T20:53:32.026Z,62.2
2022-08-29T20:58:20.274Z,62.5
2022-08-29T21:03:20.449Z,62.9
2022-08-29T21:08:20.272Z,63.3
2022-08-29T21:13:20.246Z,63.5
2022-08-29T21:18:20.589Z,63.6
2022-08-29T21:23:20.321Z,63.7
2022-08-29T21:28:46.565Z,63.8
2022-08-29T21:33:20.186Z,63.8
2022-08-29T21:38:20.280Z,64.2
2022-08-29T21:48:20.293Z,64.4
2022-08-29T21:53:20.132Z,64.5
2022-08-29T21:58:20.186Z,64.8
2022-08-29T22:03:20.193Z,65.1
2022-08-29T22:08:20.205Z,65.4
2022-08-29T22:13:20.418Z,65.5
2022-08-29T22:18:20.307Z,65.6
2022-08-29T22:23:20.459Z,65.6
2022-08-29T22:28:20.961Z,65.8
2022-08-29T22:33:22.361Z,65.9
2022-08-29T22:38:20.098Z,66.1
2022-08-29T22:43:20.280Z,66.3
2022-08-29T22:48:20.459Z,66.5
2022-08-29T22:53:20.153Z,66.6
2022-08-29T22:58:20.497Z,66.6
2022-08-29T23:03:20.438Z,66.6
2022-08-29T23:08:20.834Z,66.8
2022-08-29T23:13:20.506Z,67.1
2022-08-29T23:18:21.426Z,67.2
2022-08-29T23:23:20.680Z,67.2
2022-08-29T23:28:20.127Z,67.3
2022-08-29T23:33:20.629Z,67.5
2022-08-29T23:38:20.098Z,67.7
2022-08-29T23:43:20.446Z,68.0
2022-08-29T23:48:24.043Z,68.1
2022-08-29T23:53:20.328Z,68.1
2022-08-29T23:58:20.092Z,68.1
